createdAt,value
2018-12-19T00:01:52.146Z,9.83
2018-12-19T00:04:20.455Z,9.93
2018-12-19T00:06:48.859Z,9.40
2018-12-19T00:09:17.162Z,9.58
2018-12-19T00:11:45.487Z,9.80
2018-12-19T00:14:13.818Z,9.30
2018-12-19T00:16:42.206Z,8.85
2018-12-19T00:19:10.730Z,9.70
2018-12-19T00:21:39.099Z,9.53
2018-12-19T00:24:07.503Z,10.60
2018-12-19T00:26:35.899Z,9.38
2018-12-19T00:29:04.453Z,10.65
2018-12-19T00:31:32.741Z,9.50
2018-12-19T00:34:01.139Z,8.70
2018-12-19T00:36:29.453Z,9.55
2018-12-19T00:38:57.776Z,8.98
2018-12-19T00:41:26.082Z,9.58
2018-12-19T00:43:54.412Z,8.90
2018-12-19T00:46:22.732Z,9.80
2018-12-19T00:48:51.059Z,9.68
2018-12-19T00:51:19.371Z,9.43
2018-12-19T00:53:47.699Z,9.35
2018-12-19T00:56:16.638Z,9.83
2018-12-19T00:58:44.968Z,9.53
2018-12-19T01:01:13.330Z,8.78
2018-12-19T01:03:41.678Z,8.70
2018-12-19T01:06:09.987Z,9.23
2018-12-19T01:08:38.314Z,8.60
2018-12-19T01:11:06.649Z,9.03
2018-12-19T01:13:34.963Z,9.60
2018-12-19T01:16:03.280Z,8.88
2018-12-19T01:18:31.615Z,8.98
2018-12-19T01:20:59.950Z,9.03
2018-12-19T01:23:28.274Z,9.00
2018-12-19T01:25:56.597Z,8.68
2018-12-19T01:28:24.923Z,8.25
2018-12-19T01:30:53.274Z,8.35
2018-12-19T01:33:21.307Z,8.40
2018-12-19T01:35:49.364Z,8.23
2018-12-19T01:38:17.395Z,9.27
2018-12-19T01:40:45.444Z,9.53
2018-12-19T01:43:13.740Z,8.28
2018-12-19T01:45:42.490Z,9.25
2018-12-19T01:48:10.806Z,8.95
2018-12-19T01:50:38.851Z,8.03
2018-12-19T01:53:07.166Z,8.70
2018-12-19T01:55:35.489Z,9.40
2018-12-19T01:58:03.799Z,9.50
2018-12-19T02:00:32.166Z,8.43
2018-12-19T02:03:00.467Z,9.60
2018-12-19T02:05:28.794Z,9.63
2018-12-19T02:07:57.128Z,9.85
2018-12-19T02:10:25.471Z,10.08
2018-12-19T02:12:53.805Z,8.13
2018-12-19T02:15:22.119Z,9.25
2018-12-19T02:17:50.457Z,8.33
2018-12-19T02:20:18.836Z,9.90
2018-12-19T02:22:47.163Z,8.90
2018-12-19T02:25:15.472Z,8.33
2018-12-19T02:27:43.801Z,8.53
2018-12-19T02:30:12.124Z,9.03
2018-12-19T02:32:40.462Z,9.83
2018-12-19T02:35:08.762Z,8.43
2018-12-19T02:37:37.078Z,8.20
2018-12-19T02:40:05.174Z,8.73
2018-12-19T02:42:33.505Z,7.75
2018-12-19T02:45:01.821Z,9.78
2018-12-19T02:47:30.150Z,7.97
2018-12-19T02:49:58.486Z,8.38
2018-12-19T02:52:27.031Z,8.13
2018-12-19T02:54:55.086Z,7.60
2018-12-19T02:57:23.671Z,8.20
2018-12-19T02:59:52.012Z,8.63
2018-12-19T03:02:20.330Z,7.97
2018-12-19T03:04:48.658Z,8.55
2018-12-19T03:07:16.967Z,8.43
2018-12-19T03:09:45.031Z,8.37
2018-12-19T03:12:13.351Z,8.15
2018-12-19T03:14:41.411Z,8.23
2018-12-19T03:17:09.852Z,7.65
2018-12-19T03:19:37.901Z,8.07
2018-12-19T03:22:05.947Z,7.40
2018-12-19T03:24:33.993Z,7.70
2018-12-19T03:27:02.305Z,8.00
2018-12-19T03:29:30.638Z,7.25
2018-12-19T03:31:59.029Z,7.72
2018-12-19T03:34:27.254Z,8.47
2018-12-19T03:36:55.302Z,8.63
2018-12-19T03:39:23.667Z,7.80
2018-12-19T03:41:51.983Z,8.08
2018-12-19T03:44:20.316Z,8.18
2018-12-19T03:46:48.638Z,8.45
2018-12-19T03:49:17.230Z,8.73
2018-12-19T03:51:45.714Z,9.48
2018-12-19T03:54:13.846Z,8.40
2018-12-19T03:56:42.337Z,8.10
2018-12-19T03:59:10.663Z,8.20
2018-12-19T04:01:38.706Z,7.40
2018-12-19T04:04:06.767Z,8.50
2018-12-19T04:06:34.814Z,8.50
2018-12-19T04:09:04.023Z,7.43
2018-12-19T04:11:32.068Z,8.00
2018-12-19T04:14:00.095Z,7.77
2018-12-19T04:16:28.421Z,7.37
2018-12-19T04:18:56.450Z,7.70
2018-12-19T04:21:24.492Z,7.80
2018-12-19T04:23:52.815Z,8.18
2018-12-19T04:26:20.891Z,7.80
2018-12-19T04:28:49.164Z,7.43
2018-12-19T04:31:17.235Z,7.50
2018-12-19T04:33:45.278Z,7.50
2018-12-19T04:36:13.578Z,7.92
2018-12-19T04:38:41.787Z,8.17
2018-12-19T04:41:09.822Z,7.77
2018-12-19T04:43:38.160Z,7.58
2018-12-19T04:46:06.464Z,7.67
2018-12-19T04:48:34.522Z,8.17
2018-12-19T04:51:02.835Z,7.87
2018-12-19T04:53:31.186Z,7.55
2018-12-19T04:55:59.266Z,8.40
2018-12-19T04:58:27.607Z,8.23
2018-12-19T05:00:55.930Z,7.80
2018-12-19T05:03:24.198Z,8.33
2018-12-19T05:05:52.244Z,7.23
2018-12-19T05:08:20.297Z,7.67
2018-12-19T05:10:48.618Z,7.62
2018-12-19T05:13:16.705Z,6.90
2018-12-19T05:15:44.742Z,7.30
2018-12-19T05:18:13.075Z,7.78
2018-12-19T05:20:41.385Z,7.28
2018-12-19T05:23:09.422Z,7.60
2018-12-19T05:25:37.476Z,8.10
2018-12-19T05:28:05.756Z,7.80
2018-12-19T05:30:33.857Z,7.83
2018-12-19T05:33:01.961Z,8.40
2018-12-19T05:35:30.188Z,8.07
2018-12-19T05:37:58.228Z,7.07
2018-12-19T05:40:26.280Z,8.57
2018-12-19T05:42:54.304Z,8.23
2018-12-19T05:45:22.362Z,8.77
2018-12-19T05:47:50.411Z,7.80
2018-12-19T05:50:19.409Z,8.78
2018-12-19T05:52:47.441Z,7.50
2018-12-19T05:55:15.505Z,8.00
2018-12-19T05:57:43.623Z,8.73
2018-12-19T06:00:11.679Z,7.83
2018-12-19T06:02:39.716Z,7.93
2018-12-19T06:05:07.866Z,8.00
2018-12-19T06:07:36.418Z,8.90
2018-12-19T06:10:04.698Z,8.33
2018-12-19T06:12:32.742Z,7.80
2018-12-19T06:15:00.816Z,7.63
2018-12-19T06:17:28.847Z,7.87
2018-12-19T06:19:56.878Z,7.57
2018-12-19T06:22:24.926Z,7.80
2018-12-19T06:24:53.776Z,7.10
2018-12-19T06:27:21.823Z,8.10
2018-12-19T06:29:49.887Z,7.77
2018-12-19T06:32:17.951Z,7.20
2018-12-19T06:34:45.988Z,7.63
2018-12-19T06:37:14.181Z,7.97
2018-12-19T06:39:42.475Z,8.78
2018-12-19T06:42:10.547Z,8.17
2018-12-19T06:44:38.586Z,9.90
2018-12-19T06:47:06.673Z,9.30
2018-12-19T06:49:35.130Z,7.80
2018-12-19T06:52:03.179Z,8.63
2018-12-19T06:54:31.220Z,7.87
2018-12-19T06:56:59.244Z,8.60
2018-12-19T06:59:27.313Z,9.70
2018-12-19T07:01:55.343Z,9.97
2018-12-19T07:04:23.395Z,9.53
2018-12-19T07:06:51.675Z,10.10
2018-12-19T07:09:19.991Z,9.83
2018-12-19T07:11:48.028Z,10.23
2018-12-19T07:14:16.084Z,8.80
2018-12-19T07:16:44.139Z,10.20
2018-12-19T07:19:12.199Z,9.07
2018-12-19T07:21:40.238Z,10.93
2018-12-19T07:24:08.282Z,9.83
2018-12-19T07:26:36.619Z,10.25
2018-12-19T07:29:04.742Z,9.20
2018-12-19T07:31:32.834Z,11.03
2018-12-19T07:34:00.883Z,9.33
2018-12-19T07:36:28.928Z,12.13
2018-12-19T07:38:56.996Z,11.50
2018-12-19T07:41:25.046Z,12.07
2018-12-19T07:43:53.127Z,12.80
2018-12-19T07:46:21.167Z,13.27
2018-12-19T07:48:49.295Z,13.87
2018-12-19T07:51:17.340Z,13.23
2018-12-19T07:53:45.373Z,12.00
2018-12-19T07:56:14.531Z,10.90
2018-12-19T07:58:42.568Z,11.03
2018-12-19T08:01:10.632Z,11.63
2018-12-19T08:03:38.685Z,11.90
2018-12-19T08:06:09.686Z,11.07
2018-12-19T08:08:38.243Z,11.57
2018-12-19T08:11:06.290Z,11.77
2018-12-19T08:13:34.438Z,11.33
2018-12-19T08:16:03.731Z,10.40
2018-12-19T08:18:32.863Z,12.03
2018-12-19T08:21:01.160Z,11.30
2018-12-19T08:23:30.338Z,11.80
2018-12-19T08:25:58.395Z,11.83
2018-12-19T08:28:26.445Z,11.67
2018-12-19T08:30:54.638Z,11.90
2018-12-19T08:33:22.930Z,12.00
2018-12-19T08:35:53.979Z,11.93
2018-12-19T08:38:22.925Z,11.63
2018-12-19T08:40:51.407Z,11.53
2018-12-19T08:43:19.458Z,12.30
2018-12-19T08:45:47.978Z,11.87
2018-12-19T08:48:16.094Z,11.80
2018-12-19T08:50:44.130Z,12.93
2018-12-19T08:53:12.294Z,11.77
2018-12-19T08:55:40.344Z,11.33
2018-12-19T08:58:08.384Z,11.93
2018-12-19T09:00:36.430Z,12.60
2018-12-19T09:03:04.470Z,12.50
2018-12-19T09:05:32.853Z,13.30
2018-12-19T09:08:00.914Z,12.87
2018-12-19T09:10:28.963Z,13.90
2018-12-19T09:12:57.078Z,13.20
2018-12-19T09:15:30.592Z,12.60
2018-12-19T09:17:58.771Z,12.73
2018-12-19T09:20:26.810Z,11.67
2018-12-19T09:22:54.899Z,12.73
2018-12-19T09:25:23.874Z,12.47
2018-12-19T09:27:51.987Z,13.50
2018-12-19T09:30:20.096Z,13.00
2018-12-19T09:32:48.215Z,12.67
2018-12-19T09:35:16.289Z,12.03
2018-12-19T09:37:44.346Z,12.77
2018-12-19T09:40:12.410Z,12.17
2018-12-19T09:42:41.379Z,12.53
2018-12-19T09:45:09.500Z,13.30
2018-12-19T09:47:37.755Z,13.67
2018-12-19T09:50:05.871Z,13.17
2018-12-19T09:52:33.910Z,13.73
2018-12-19T09:55:01.963Z,13.73
2018-12-19T09:57:30.228Z,12.87
2018-12-19T09:59:58.309Z,13.10
2018-12-19T10:02:26.427Z,14.70
2018-12-19T10:04:54.494Z,13.83
2018-12-19T10:07:22.892Z,12.90
2018-12-19T10:09:51.253Z,13.97
2018-12-19T10:12:20.323Z,13.70
2018-12-19T10:14:48.414Z,13.63
2018-12-19T10:17:16.458Z,14.27
2018-12-19T10:19:44.518Z,14.17
2018-12-19T10:22:14.298Z,13.77
2018-12-19T10:24:48.046Z,13.80
2018-12-19T10:27:17.883Z,14.73
2018-12-19T10:29:45.968Z,13.30
2018-12-19T10:32:14.193Z,12.83
2018-12-19T10:34:43.117Z,13.80
2018-12-19T10:37:11.158Z,14.30
2018-12-19T10:39:39.423Z,14.63
2018-12-19T10:42:07.474Z,14.47
2018-12-19T10:44:35.540Z,13.73
2018-12-19T10:47:03.612Z,15.73
2018-12-19T10:49:31.883Z,16.03
2018-12-19T10:51:59.963Z,16.27
2018-12-19T10:54:28.408Z,18.47
2018-12-19T10:56:56.465Z,15.63
2018-12-19T10:59:24.495Z,16.60
2018-12-19T11:01:52.575Z,17.33
2018-12-19T11:04:20.602Z,17.07
2018-12-19T11:06:48.672Z,17.10
2018-12-19T11:09:16.787Z,16.60
2018-12-19T11:11:45.302Z,15.43
2018-12-19T11:14:13.335Z,18.00
2018-12-19T11:16:41.388Z,15.63
2018-12-19T11:19:09.433Z,17.20
2018-12-19T11:21:37.559Z,17.97
2018-12-19T11:24:05.873Z,16.90
2018-12-19T11:26:34.106Z,17.03
2018-12-19T11:29:02.903Z,17.47
2018-12-19T11:31:31.173Z,17.70
2018-12-19T11:33:59.271Z,16.67
2018-12-19T11:36:27.336Z,17.20
2018-12-19T11:38:55.500Z,17.17
2018-12-19T11:41:23.581Z,17.60
2018-12-19T11:43:51.672Z,17.50
2018-12-19T11:46:19.828Z,19.50
2018-12-19T11:48:48.107Z,17.33
2018-12-19T11:51:16.177Z,17.87
2018-12-19T11:53:44.550Z,16.90
2018-12-19T11:56:12.624Z,18.20
2018-12-19T11:58:41.116Z,18.67
2018-12-19T12:01:09.165Z,17.20
2018-12-19T12:03:37.245Z,18.40
2018-12-19T12:06:05.340Z,17.37
2018-12-19T12:08:33.508Z,18.63
2018-12-19T12:11:02.312Z,16.20
2018-12-19T12:13:30.872Z,15.70
2018-12-19T12:15:59.444Z,18.20
2018-12-19T12:18:27.492Z,17.43
2018-12-19T12:20:55.538Z,16.20
2018-12-19T12:23:23.607Z,14.67
2018-12-19T12:25:51.750Z,14.77
2018-12-19T12:28:19.894Z,16.40
2018-12-19T12:30:47.951Z,14.03
2018-12-19T12:33:15.992Z,15.53
2018-12-19T12:35:44.369Z,17.27
2018-12-19T12:38:12.630Z,18.80
2018-12-19T12:40:40.707Z,16.67
2018-12-19T12:43:08.775Z,17.70
2018-12-19T12:45:37.171Z,16.77
2018-12-19T12:48:05.790Z,15.90
2018-12-19T12:50:33.934Z,15.10
2018-12-19T12:53:02.105Z,13.90
2018-12-19T12:55:30.669Z,15.73
2018-12-19T12:57:58.767Z,16.30
2018-12-19T13:00:26.923Z,18.03
2018-12-19T13:02:54.987Z,17.07
2018-12-19T13:05:23.686Z,17.00
2018-12-19T13:07:51.755Z,16.93
2018-12-19T13:10:19.884Z,17.87
2018-12-19T13:12:48.038Z,18.10
2018-12-19T13:15:17.805Z,17.00
2018-12-19T13:17:46.148Z,19.50
2018-12-19T13:20:14.202Z,18.53
2018-12-19T13:22:42.361Z,21.50
2018-12-19T13:25:10.654Z,19.23
2018-12-19T13:27:38.710Z,20.93
2018-12-19T13:30:08.012Z,20.53
2018-12-19T13:32:36.107Z,21.00
2018-12-19T13:35:04.450Z,20.90
2018-12-19T13:37:32.523Z,18.97
2018-12-19T13:40:00.556Z,17.90
2018-12-19T13:42:28.702Z,19.90
2018-12-19T13:44:56.866Z,19.63
2018-12-19T13:47:24.890Z,22.00
2018-12-19T13:49:53.115Z,19.80
2018-12-19T13:52:21.168Z,20.40
2018-12-19T13:54:49.222Z,19.33
2018-12-19T13:57:17.303Z,19.67
2018-12-19T13:59:45.387Z,19.77
2018-12-19T14:02:14.311Z,19.40
2018-12-19T14:04:42.828Z,19.40
2018-12-19T14:07:10.937Z,19.77
2018-12-19T14:09:39.009Z,19.53
2018-12-19T14:12:12.289Z,20.00
2018-12-19T14:14:37.162Z,18.20
2018-12-19T14:17:05.201Z,19.27
2018-12-19T14:19:33.275Z,18.73
2018-12-19T14:22:01.319Z,18.63
2018-12-19T14:24:29.374Z,19.50
2018-12-19T14:26:57.560Z,19.83
2018-12-19T14:29:25.631Z,18.50
2018-12-19T14:31:53.771Z,17.83
2018-12-19T14:34:21.819Z,18.53
2018-12-19T14:36:50.035Z,17.93
2018-12-19T14:39:18.192Z,18.53
2018-12-19T14:41:46.241Z,18.17
2018-12-19T14:44:14.274Z,18.73
2018-12-19T14:46:42.416Z,17.80
2018-12-19T14:49:14.004Z,17.87
2018-12-19T14:51:40.852Z,17.60
2018-12-19T14:54:09.186Z,19.37
2018-12-19T14:56:37.255Z,18.90
2018-12-19T14:59:05.358Z,18.20
2018-12-19T15:01:33.407Z,18.13
2018-12-19T15:04:01.470Z,17.10
2018-12-19T15:06:29.512Z,18.50
2018-12-19T15:08:57.569Z,18.73
2018-12-19T15:11:27.006Z,19.30
2018-12-19T15:13:55.479Z,18.00
2018-12-19T15:16:23.542Z,18.10
2018-12-19T15:18:51.662Z,17.43
2018-12-19T15:21:19.727Z,16.80
2018-12-19T15:23:47.784Z,17.27
2018-12-19T15:26:15.819Z,16.50
2018-12-19T15:28:43.892Z,18.83
2018-12-19T15:31:11.915Z,17.73
2018-12-19T15:33:39.990Z,18.20
2018-12-19T15:36:08.088Z,19.73
2018-12-19T15:38:36.138Z,17.97
2018-12-19T15:41:04.201Z,20.67
2018-12-19T15:43:32.251Z,17.97
2018-12-19T15:46:00.364Z,19.10
2018-12-19T15:48:28.407Z,17.60
2018-12-19T15:50:56.456Z,16.90
2018-12-19T15:53:24.935Z,17.00
2018-12-19T15:55:52.984Z,16.90
2018-12-19T15:58:21.107Z,17.07
2018-12-19T16:00:49.183Z,19.47
2018-12-19T16:03:17.208Z,19.10
2018-12-19T16:05:45.294Z,20.10
2018-12-19T16:08:13.342Z,17.80
2018-12-19T16:10:41.409Z,18.27
2018-12-19T16:13:09.513Z,18.53
2018-12-19T16:15:37.633Z,17.83
2018-12-19T16:18:05.651Z,18.37
2018-12-19T16:20:33.742Z,18.70
2018-12-19T16:23:01.776Z,17.63
2018-12-19T16:25:29.924Z,18.33
2018-12-19T16:27:57.968Z,18.07
2018-12-19T16:30:26.039Z,19.43
2018-12-19T16:32:54.080Z,20.77
2018-12-19T16:35:22.149Z,20.87
2018-12-19T16:37:50.964Z,19.07
2018-12-19T16:40:19.142Z,20.70
2018-12-19T16:42:47.176Z,18.80
2018-12-19T16:45:15.257Z,18.03
2018-12-19T16:47:43.310Z,17.70
2018-12-19T16:50:11.365Z,17.73
2018-12-19T16:52:39.448Z,18.50
2018-12-19T16:55:07.483Z,20.00
2018-12-19T16:57:35.534Z,19.20
2018-12-19T17:00:04.663Z,24.33
2018-12-19T17:02:32.751Z,19.53
2018-12-19T17:05:00.792Z,20.67
2018-12-19T17:07:28.828Z,19.93
2018-12-19T17:09:56.894Z,17.70
2018-12-19T17:12:24.966Z,17.30
2018-12-19T17:14:53.026Z,17.03
2018-12-19T17:17:21.098Z,16.77
2018-12-19T17:19:49.138Z,16.60
2018-12-19T17:22:17.212Z,16.30
2018-12-19T17:24:45.278Z,17.23
2018-12-19T17:27:13.344Z,17.63
2018-12-19T17:29:41.419Z,17.40
2018-12-19T17:32:09.471Z,19.03
2018-12-19T17:34:37.550Z,19.10
2018-12-19T17:37:05.615Z,19.00
2018-12-19T17:39:34.072Z,19.80
2018-12-19T17:42:02.151Z,19.03
2018-12-19T17:44:30.194Z,19.20
2018-12-19T17:46:58.237Z,17.60
2018-12-19T17:49:26.333Z,18.83
2018-12-19T17:51:54.373Z,18.77
2018-12-19T17:54:22.422Z,20.73
2018-12-19T17:56:50.489Z,18.43
2018-12-19T17:59:18.523Z,17.90
2018-12-19T18:01:46.639Z,19.33
2018-12-19T18:04:14.710Z,20.23
2018-12-19T18:06:42.821Z,21.03
2018-12-19T18:09:11.647Z,18.40
2018-12-19T18:11:39.713Z,18.57
2018-12-19T18:14:07.927Z,17.67
2018-12-19T18:16:35.987Z,17.93
2018-12-19T18:19:04.774Z,17.43
2018-12-19T18:21:33.136Z,18.17
2018-12-19T18:24:01.228Z,17.20
2018-12-19T18:26:29.293Z,15.97
2018-12-19T18:28:57.393Z,14.40
2018-12-19T18:31:25.456Z,14.60
2018-12-19T18:33:53.517Z,12.93
2018-12-19T18:36:21.590Z,12.07
2018-12-19T18:38:49.669Z,12.07
2018-12-19T18:41:17.762Z,12.03
2018-12-19T18:43:45.881Z,13.03
2018-12-19T18:46:13.984Z,11.27
2018-12-19T18:48:42.036Z,13.97
2018-12-19T18:51:10.124Z,11.70
2018-12-19T18:53:38.193Z,12.03
2018-12-19T18:56:06.281Z,11.70
2018-12-19T18:58:34.402Z,11.57
2018-12-19T19:01:02.463Z,12.67
2018-12-19T19:03:30.511Z,10.83
2018-12-19T19:05:58.617Z,12.27
2018-12-19T19:08:26.738Z,11.23
2018-12-19T19:10:54.997Z,11.37
2018-12-19T19:13:23.051Z,11.13
2018-12-19T19:15:51.089Z,10.40
2018-12-19T19:18:19.173Z,10.60
2018-12-19T19:20:47.240Z,12.20
2018-12-19T19:23:15.313Z,11.83
2018-12-19T19:25:43.366Z,12.30
2018-12-19T19:28:11.483Z,10.80
2018-12-19T19:30:39.537Z,12.83
2018-12-19T19:33:07.595Z,11.37
2018-12-19T19:35:35.669Z,10.20
2018-12-19T19:38:03.773Z,9.90
2018-12-19T19:40:31.869Z,8.67
2018-12-19T19:42:59.933Z,8.10
2018-12-19T19:45:28.246Z,7.63
2018-12-19T19:47:56.312Z,6.67
2018-12-19T19:50:24.385Z,5.77
2018-12-19T19:52:52.465Z,6.13
2018-12-19T19:55:20.519Z,5.37
2018-12-19T19:57:48.603Z,5.63
2018-12-19T20:00:18.416Z,5.80
2018-12-19T20:02:46.553Z,4.77
2018-12-19T20:05:14.614Z,5.43
2018-12-19T20:07:42.655Z,5.90
2018-12-19T20:10:10.725Z,5.90
2018-12-19T20:12:38.791Z,6.70
2018-12-19T20:15:07.022Z,5.50
2018-12-19T20:17:35.049Z,5.43
2018-12-19T20:20:03.165Z,4.67
2018-12-19T20:22:31.342Z,4.70
2018-12-19T20:25:01.176Z,4.80
2018-12-19T20:27:29.222Z,4.77
2018-12-19T20:29:57.397Z,4.80
2018-12-19T20:32:25.443Z,4.23
2018-12-19T20:34:53.528Z,3.80
2018-12-19T20:37:22.496Z,3.83
2018-12-19T20:39:50.570Z,3.20
2018-12-19T20:42:19.160Z,4.90
2018-12-19T20:44:47.252Z,3.53
2018-12-19T20:47:15.304Z,3.57
2018-12-19T20:49:43.340Z,3.97
2018-12-19T20:52:11.431Z,3.13
2018-12-19T20:54:39.470Z,3.70
2018-12-19T20:57:07.650Z,4.13
2018-12-19T20:59:35.693Z,3.47
2018-12-19T21:02:04.016Z,3.77
2018-12-19T21:04:32.105Z,3.27
2018-12-19T21:07:00.146Z,3.63
2018-12-19T21:09:28.195Z,3.37
2018-12-19T21:11:56.292Z,3.43
2018-12-19T21:14:24.365Z,3.90
2018-12-19T21:16:57.944Z,3.63
2018-12-19T21:19:26.020Z,3.60
2018-12-19T21:21:54.697Z,3.57
2018-12-19T21:24:22.735Z,3.60
2018-12-19T21:26:50.818Z,3.90
2018-12-19T21:29:18.876Z,3.83
2018-12-19T21:31:46.966Z,2.93
2018-12-19T21:34:15.240Z,3.30
2018-12-19T21:36:43.318Z,3.63
2018-12-19T21:39:11.606Z,4.10
2018-12-19T21:41:39.652Z,3.43
2018-12-19T21:44:07.703Z,3.70
2018-12-19T21:46:35.785Z,3.70
2018-12-19T21:49:04.118Z,3.23
2018-12-19T21:51:32.156Z,3.50
2018-12-19T21:54:00.240Z,2.90
2018-12-19T21:56:28.295Z,3.00
2018-12-19T21:58:56.483Z,2.63
2018-12-19T22:01:24.724Z,2.90
2018-12-19T22:03:52.908Z,2.40
2018-12-19T22:06:20.999Z,2.57
2018-12-19T22:08:49.036Z,3.13
2018-12-19T22:11:17.377Z,3.23
2018-12-19T22:13:45.600Z,3.03
2018-12-19T22:16:15.529Z,3.40
2018-12-19T22:18:46.504Z,3.43
2018-12-19T22:21:14.994Z,3.10
2018-12-19T22:23:43.029Z,3.27
2018-12-19T22:26:11.142Z,3.43
2018-12-19T22:28:39.504Z,2.80
2018-12-19T22:31:07.823Z,2.40
2018-12-19T22:33:35.850Z,3.27
2018-12-19T22:36:03.924Z,3.03
2018-12-19T22:38:32.049Z,2.60
2018-12-19T22:41:00.334Z,2.80
2018-12-19T22:43:28.646Z,2.50
2018-12-19T22:45:56.909Z,2.50
2018-12-19T22:48:24.997Z,3.00
2018-12-19T22:50:53.235Z,2.67
2018-12-19T22:53:21.370Z,2.90
2018-12-19T22:55:49.647Z,3.00
2018-12-19T22:58:18.038Z,3.00
2018-12-19T23:00:51.927Z,2.57
2018-12-19T23:03:21.951Z,2.70
2018-12-19T23:05:50.013Z,4.03
2018-12-19T23:08:18.520Z,2.97
2018-12-19T23:10:46.891Z,3.30
2018-12-19T23:13:15.149Z,3.53
2018-12-19T23:15:43.409Z,3.00
2018-12-19T23:18:17.325Z,2.60
2018-12-19T23:20:45.680Z,3.10
2018-12-19T23:23:13.926Z,2.43
2018-12-19T23:25:42.293Z,2.70
2018-12-19T23:28:10.685Z,2.70
2018-12-19T23:30:38.949Z,7.27
2018-12-19T23:33:07.070Z,2.13
2018-12-19T23:35:35.362Z,2.90
2018-12-19T23:38:03.821Z,2.87
2018-12-19T23:40:32.218Z,2.70
2018-12-19T23:43:00.432Z,2.90
2018-12-19T23:45:28.558Z,3.30
2018-12-19T23:47:57.359Z,2.90
2018-12-19T23:50:25.495Z,3.13
2018-12-19T23:52:55.703Z,3.60
2018-12-19T23:55:24.433Z,3.80
2018-12-19T23:57:53.928Z,3.40
